This is the latest recevied weather packets stored in our database for station/object F4FSZ-11. If no packets are shown the sender has not sent any weather packets the latest 10 day(s).
| Time | Temp. | Humidity | Pressure | Rain* | Wind** | Luminosity | Snow |
|---|---|---|---|---|---|---|---|
| 1777320179 | 11.11° C | 77% | 1011 hPa | - | - | - | - |
| 1777319278 | 11.67° C | 77% | 1011 hPa | - | - | - | - |
| 1777318378 | 12.22° C | 76% | 1011 hPa | - | - | - | - |
| 1777317478 | 12.78° C | 75% | 1011 hPa | - | - | - | - |
| 1777316578 | 13.33° C | 74% | 1011 hPa | - | - | - | - |
| 1777315678 | 13.89° C | 71% | 1011 hPa | - | - | - | - |
| 1777314778 | 15.56° C | 67% | 1010.9 hPa | - | - | - | - |
| 1777313878 | 16.67° C | 64% | 1011 hPa | - | - | - | - |
| 1777312977 | 17.78° C | 60% | 1010.9 hPa | - | - | - | - |
| 1777312077 | 19.44° C | 54% | 1011 hPa | - | - | - | - |
| 1777311177 | 20° C | 47% | 1011 hPa | - | - | - | - |
| 1777310277 | 21.11° C | 44% | 1010.9 hPa | - | - | - | - |
| 1777309377 | 22.22° C | 42% | 1011 hPa | - | - | - | - |
| 1777308477 | 22.22° C | 43% | 1011.1 hPa | - | - | - | - |
| 1777307577 | 23.33° C | 41% | 1011.1 hPa | - | - | - | - |
| 1777306677 | 24.44° C | 38% | 1011.1 hPa | - | - | - | - |
| 1777305777 | 25° C | 36% | 1011.1 hPa | - | - | - | - |
| 1777304877 | 25° C | 36% | 1011.1 hPa | - | - | - | - |
| 1777303977 | 26.11° C | 34% | 1011.3 hPa | - | - | - | - |
| 1777303077 | 25.56° C | 36% | 1011.5 hPa | - | - | - | - |
| 1777302177 | 24.44° C | 36% | 1011.5 hPa | - | - | - | - |
| 1777301277 | 24.44° C | 36% | 1011.6 hPa | - | - | - | - |
| 1777300377 | 25° C | 37% | 1011.8 hPa | - | - | - | - |
| 1777299476 | 22.22° C | 38% | 1011.8 hPa | - | - | - | - |
| 1777298576 | 23.89° C | 39% | 1012 hPa | - | - | - | - |
* Rain since midnight (hover to see other rain measurements)
** Current wind speed in m/s (hover to see current wind gust speed)